Weather History for KPRO - March, 2014

Change the Weather History Date:

Sunday, March 30, 2014

  Actual Average Record
Temperature  
Mean Temperature 51 °F -  
Max Temperature 69 °F 50 °F 89 °F (1986)
Min Temperature 33 °F 30 °F 8 °F (1964)
Degree Days  
Heating Degree Days 14    
Growing Degree Days 1 (Base 50)    
Moisture  
Dew Point 33 °F    
Average Humidity 53    
Maximum Humidity 83    
Minimum Humidity 24    
Precipitation  
Precipitation 0.00 in - - ()
Sea Level Pressure  
Sea Level Pressure 29.91 in    
Wind  
Wind Speed 13 mph (SSE)    
Max Wind Speed 30 mph    
Max Gust Speed 36 mph    
Visibility 10 miles    
Events      
Averages and records for this station are not official NWS values.
T = Trace of Precipitation, MM = Missing Value Source: NWS Daily Summary

Daily Weather History Graph

Daily Weather History Graph

Search for Another Location

Airport or City:

Trip Planner

Search our weather history database for the weather conditions in past years. The results will help you decide how hot, cold, wet, or windy it might be!

Date:

Astronomy

Mar. 30, 2014 Rise Set
Actual Time 7:02 AM CDT 7:39 PM CDT
Civil Twilight 6:34 AM CDT 8:08 PM CDT
Nautical Twilight 6:01 AM CDT 8:41 PM CDT
Astronomical Twilight 5:27 AM CDT 9:15 PM CDT
Moon 6:49 AM CDT (3/30) 7:54 PM CDT (3/30)
Length of Visible Light 13h 33m
Length of Day
12h 37m
Waning Crescent, 0% of the Moon is Illuminated
Mar 30
Waning Crescent
Mar 30
New
Apr 7
First Quarter
Apr 15
Full
Apr 22
Last Quarter

Hourly Weather History & Observations

Time (CDT) Temp. Windchill Dew Point Humidity Pressure Visibility Wind Dir Wind Speed Gust Speed Precip Events Conditions
12:15 AM 37.6 °F 30.0 °F 29.7 °F 73% 30.11 in 10.0 mi SSE 11.5 mph - N/A   Clear
12:35 AM 36.7 °F 28.9 °F 29.7 °F 76% 30.10 in 10.0 mi SSE 11.5 mph - N/A   Clear
1:15 AM 37.4 °F 30.3 °F 29.3 °F 73% 30.09 in 10.0 mi SSE 10.4 mph - N/A   Clear
1:35 AM 35.1 °F 27.4 °F 29.1 °F 79% 30.08 in 10.0 mi SSE 10.4 mph - N/A   Clear
1:55 AM 34.7 °F 28.8 °F 29.3 °F 81% 30.07 in 10.0 mi SSE 6.9 mph - N/A   Clear
2:15 AM 33.8 °F 28.6 °F 29.1 °F 83% 30.07 in 10.0 mi SE 5.8 mph - N/A   Clear
2:35 AM 33.8 °F 27.7 °F 29.1 °F 83% 30.06 in 10.0 mi SSE 6.9 mph - N/A   Clear
2:55 AM 34.2 °F 28.2 °F 29.3 °F 82% 30.05 in 10.0 mi SE 6.9 mph - N/A   Clear
3:15 AM 34.0 °F 28.8 °F 29.3 °F 83% 30.05 in 10.0 mi SSE 5.8 mph - N/A   Clear
3:35 AM 34.7 °F 28.1 °F 29.8 °F 82% 30.03 in 10.0 mi SSE 8.1 mph - N/A   Clear
3:55 AM 36.5 °F 30.3 °F 30.0 °F 77% 30.03 in 10.0 mi SSE 8.1 mph - N/A   Clear
4:15 AM 34.9 °F 28.3 °F 29.3 °F 80% 30.03 in 10.0 mi SSE 8.1 mph - N/A   Clear
4:35 AM 34.9 °F 29.0 °F 29.7 °F 81% 30.02 in 10.0 mi SSE 6.9 mph - N/A   Clear
4:55 AM 37.0 °F 30.4 °F 30.2 °F 76% 30.02 in 10.0 mi SSE 9.2 mph - N/A   Clear
5:15 AM 37.4 °F 30.8 °F 30.2 °F 75% 30.02 in 10.0 mi SSE 9.2 mph - N/A   Clear
5:35 AM 37.0 °F 31.6 °F 30.2 °F 76% 30.02 in 10.0 mi SSE 6.9 mph - N/A   Clear
5:55 AM 36.0 °F 29.0 °F 30.2 °F 80% 30.01 in 10.0 mi SSE 9.2 mph - N/A   Clear
6:15 AM 36.7 °F 29.4 °F 30.6 °F 78% 30.01 in 10.0 mi SSE 10.4 mph - N/A   Clear
6:35 AM 35.6 °F 28.6 °F 30.2 °F 81% 30.01 in 10.0 mi SSE 9.2 mph - N/A   Clear
6:55 AM 35.6 °F 28.0 °F 30.2 °F 81% 30.01 in 10.0 mi SE 10.4 mph - N/A   Clear
7:15 AM 37.0 °F 29.8 °F 30.9 °F 79% 30.01 in 10.0 mi SSE 10.4 mph - N/A   Clear
7:35 AM 36.9 °F 29.6 °F 31.1 °F 80% 30.00 in 7.0 mi SSE 10.4 mph - N/A   Clear
7:55 AM 37.6 °F 30.5 °F 31.5 °F 79% 30.00 in 7.0 mi SSE 10.4 mph - N/A   Clear
8:15 AM 38.5 °F 31.6 °F 32.0 °F 78% 30.00 in 7.0 mi SSE 10.4 mph - N/A   Clear
8:35 AM 40.3 °F 33.9 °F 32.0 °F 72% 29.99 in 7.0 mi SE 10.4 mph - N/A   Clear
8:55 AM 42.3 °F 36.8 °F 33.3 °F 70% 29.99 in 10.0 mi SSE 9.2 mph - N/A   Clear
9:15 AM 45.5 °F 39.9 °F 33.4 °F 63% 29.99 in 7.0 mi SSE 11.5 mph - N/A   Clear
9:35 AM 49.6 °F - 33.8 °F 54% 29.98 in 7.0 mi South 17.3 mph 23.0 mph N/A   Clear
9:55 AM 51.6 °F - 33.8 °F 51% 29.97 in 7.0 mi South 23.0 mph 26.5 mph N/A   Clear
10:15 AM 53.8 °F - 33.6 °F 46% 29.98 in 7.0 mi South 18.4 mph 25.3 mph N/A   Clear
10:35 AM 55.6 °F - 33.4 °F 43% 29.97 in 10.0 mi South 21.9 mph 33.4 mph N/A   Clear
10:55 AM 56.5 °F - 34.0 °F 43% 29.96 in 7.0 mi South 24.2 mph 29.9 mph N/A   Clear
11:15 AM 57.6 °F - 35.2 °F 43% 29.94 in 10.0 mi South 23.0 mph 31.1 mph N/A   Clear
11:35 AM 57.4 °F - 35.2 °F 43% 29.94 in 10.0 mi South 20.7 mph - N/A   Clear
11:55 AM 61.3 °F - 33.8 °F 36% 29.93 in 10.0 mi South 24.2 mph 32.2 mph N/A   Clear
12:15 PM 61.7 °F - 33.8 °F 35% 29.92 in 10.0 mi SSW 25.3 mph 32.2 mph N/A   Clear
12:35 PM 63.9 °F - 34.5 °F 34% 29.91 in 10.0 mi South 26.5 mph 32.2 mph N/A   Clear
12:55 PM 65.3 °F - 34.0 °F 31% 29.90 in 10.0 mi SSW 24.2 mph 31.1 mph N/A   Clear
1:15 PM 66.9 °F - 33.3 °F 29% 29.89 in 10.0 mi South 23.0 mph 34.5 mph N/A   Clear
1:35 PM 68.2 °F - 33.3 °F 27% 29.88 in 10.0 mi SSW 27.6 mph 33.4 mph N/A   Clear
1:55 PM 67.5 °F - 31.8 °F 27% 29.86 in 10.0 mi SSW 29.9 mph 35.7 mph N/A   Clear
2:15 PM 66.9 °F - 31.8 °F 27% 29.86 in 10.0 mi SSW 24.2 mph 32.2 mph N/A   Clear
2:35 PM 66.4 °F - 31.6 °F 27% 29.85 in 10.0 mi South 21.9 mph 26.5 mph N/A   Clear
2:55 PM 66.7 °F - 33.1 °F 29% 29.84 in 10.0 mi South 19.6 mph 27.6 mph N/A   Clear
3:15 PM 69.8 °F - 32.0 °F 25% 29.82 in 10.0 mi South 25.3 mph 34.5 mph N/A   Clear
3:35 PM 69.4 °F - 31.5 °F 24% 29.81 in 10.0 mi South 23.0 mph 32.2 mph N/A   Clear
3:55 PM 68.5 °F - 32.5 °F 26% 29.81 in 10.0 mi South 19.6 mph 27.6 mph N/A   Clear
4:15 PM 69.1 °F - 32.9 °F 26% 29.80 in 10.0 mi South 21.9 mph 26.5 mph N/A   Clear
4:35 PM 69.1 °F - 32.4 °F 26% 29.79 in 10.0 mi South 23.0 mph 29.9 mph N/A   Clear
4:55 PM 69.1 °F - 34.0 °F 27% 29.79 in 10.0 mi South 23.0 mph 29.9 mph N/A   Clear
5:15 PM 69.4 °F - 32.5 °F 26% 29.78 in 10.0 mi South 19.6 mph 28.8 mph N/A   Clear
5:35 PM 68.5 °F - 33.4 °F 27% 29.78 in 10.0 mi South 18.4 mph 26.5 mph N/A   Clear
5:55 PM 67.5 °F - 34.2 °F 29% 29.77 in 10.0 mi South 19.6 mph 25.3 mph N/A   Clear
6:15 PM 66.6 °F - 32.5 °F 28% 29.77 in 10.0 mi SSE 17.3 mph - N/A   Clear
6:35 PM 65.3 °F - 35.4 °F 33% 29.77 in 10.0 mi SSE 13.8 mph - N/A   Clear
6:55 PM 64.8 °F - 34.7 °F 33% 29.77 in 10.0 mi SSE 12.7 mph - N/A   Clear
7:15 PM 62.2 °F - 35.6 °F 37% 29.76 in 10.0 mi SSE 11.5 mph - N/A   Clear
7:35 PM 58.8 °F - 36.9 °F 44% 29.76 in 10.0 mi SSE 11.5 mph - N/A   Clear
7:55 PM 55.9 °F - 37.4 °F 50% 29.77 in 10.0 mi SSE 10.4 mph - N/A   Clear
8:15 PM 54.5 °F - 37.0 °F 52% 29.76 in 10.0 mi SSE 11.5 mph - N/A   Clear
8:35 PM 54.7 °F - 36.3 °F 50% 29.77 in 10.0 mi SSE 12.7 mph - N/A   Clear
8:55 PM 55.2 °F - 35.6 °F 48% 29.77 in 10.0 mi SSE 11.5 mph - N/A   Clear
9:15 PM 53.2 °F - 36.1 °F 52% 29.77 in 10.0 mi SSE 10.4 mph - N/A   Clear
9:35 PM 53.8 °F - 35.8 °F 51% 29.77 in 10.0 mi SSE 11.5 mph - N/A   Clear
9:55 PM 52.9 °F - 35.8 °F 52% 29.77 in 10.0 mi SSE 10.4 mph - N/A   Clear
10:15 PM 53.8 °F - 35.4 °F 50% 29.77 in 10.0 mi SSE 11.5 mph - N/A   Clear
10:35 PM 53.8 °F - 35.1 °F 49% 29.76 in 10.0 mi SSE 12.7 mph - N/A   Clear
10:55 PM 51.8 °F - 36.0 °F 55% 29.76 in 10.0 mi SSE 11.5 mph - N/A   Clear
11:15 PM 53.2 °F - 35.4 °F 51% 29.76 in 10.0 mi SSE 12.7 mph - N/A   Clear
11:35 PM 53.6 °F - 35.4 °F 50% 29.75 in 10.0 mi SSE 12.7 mph - N/A   Clear
11:55 PM 53.6 °F - 35.1 °F 50% 29.74 in 10.0 mi SSE 12.7 mph - N/A   Clear